Washington Grove, Maryland
Current Conditions -  °F | °C
As of 10:15 PM on Tuesday 25 Nov 2014 (Local Time) from KGAI Reporting Station
Clear Clear  
Wind Chill: 43°   Ceiling: Unl
Heat Index: 43°   Visibility: 10mi
Dew Point: 32°   Wind: 0mph
Humidity: 66%   Direction: NA
Pressure: 30.17"   Gusts: NA
Location:  39.14°N, 77.18°W
Report Text: KGAI 260315Z 00000KT 10SM CLR 06/00 A3017 RMK AO1
Loading
Personal Weather Stations






























Interactive Weather Map New forecast layout! Learn more

10-Day Weather Forecast

Advertisements
Track Severe Weather on mobile